Time;durP1;ratioP1;P1;durP2;ratioP2;P2;SDS_P1;SDS_P2;PMS_P1;PMS_P2;Temp;Humidity;BMP_temperature;BMP_pressure;BME280_temperature;BME280_humidity;BME280_pressure;Samples;Min_cycle;Max_cycle;Signal;HPM_P1;HPM_P2
2022/10/08 00:00:00;;;;;;;11.13;5.07;;;12.60;99.90;;;;;;5038191;28;20204;-71
2022/10/08 00:02:28;;;;;;;11.90;4.80;;;12.60;99.90;;;;;;5035142;28;20208;-70
2022/10/08 00:04:54;;;;;;;6.23;4.50;;;12.60;99.90;;;;;;5029353;28;20633;-70
2022/10/08 00:07:20;;;;;;;8.23;4.40;;;12.60;99.90;;;;;;5022938;28;20203;-71
2022/10/08 00:09:45;;;;;;;8.13;4.60;;;12.70;99.90;;;;;;5035291;28;20572;-70
2022/10/08 00:12:11;;;;;;;11.60;4.97;;;12.60;99.90;;;;;;5034620;28;20181;-70
2022/10/08 00:14:38;;;;;;;6.00;4.23;;;12.60;99.90;;;;;;5038878;28;20207;-71
2022/10/08 00:17:03;;;;;;;8.63;4.43;;;12.60;99.90;;;;;;5038641;28;20214;-70
2022/10/08 00:19:29;;;;;;;7.87;4.20;;;12.70;99.90;;;;;;5034151;28;20204;-71
2022/10/08 00:21:55;;;;;;;9.60;5.00;;;12.70;99.90;;;;;;5023693;28;20297;-70
2022/10/08 00:24:22;;;;;;;4.90;4.30;;;12.80;99.90;;;;;;5023224;28;20217;-71
2022/10/08 00:26:48;;;;;;;8.33;4.50;;;12.80;99.90;;;;;;5035412;28;20706;-71
2022/10/08 00:29:16;;;;;;;8.07;4.60;;;12.80;99.90;;;;;;5016248;28;20207;-70
2022/10/08 00:31:44;;;;;;;9.03;4.53;;;12.80;99.90;;;;;;5042223;28;20203;-70
2022/10/08 00:34:14;;;;;;;9.63;4.57;;;12.80;99.90;;;;;;5018879;28;20283;-70
2022/10/08 00:36:40;;;;;;;9.67;4.40;;;12.70;99.90;;;;;;5034128;28;20596;-70
2022/10/08 00:39:12;;;;;;;13.37;4.97;;;12.70;99.90;;;;;;5034382;28;20266;-70
2022/10/08 00:41:38;;;;;;;6.47;4.57;;;12.70;99.90;;;;;;5019909;28;20259;-70
2022/10/08 00:44:42;;;;;;;9.43;4.90;;;12.70;99.90;;;;;;5018789;28;20243;-71
2022/10/08 00:47:30;;;;;;;8.60;4.83;;;12.70;99.90;;;;;;5008883;28;20216;-70
2022/10/08 00:50:12;;;;;;;13.07;4.97;;;12.50;99.90;;;;;;5035094;28;20208;-70
2022/10/08 00:52:46;;;;;;;10.13;5.00;;;12.50;99.90;;;;;;5031042;28;20211;-72
2022/10/08 00:55:13;;;;;;;10.40;5.60;;;12.50;99.90;;;;;;5015522;28;20200;-70
2022/10/08 00:57:42;;;;;;;9.67;5.10;;;12.40;99.90;;;;;;5020454;28;20205;-70
2022/10/08 01:00:15;;;;;;;10.17;4.73;;;12.40;99.90;;;;;;5037867;28;20574;-70
2022/10/08 01:02:41;;;;;;;9.33;5.33;;;12.40;99.90;;;;;;5015875;28;20219;-70
2022/10/08 01:05:08;;;;;;;8.30;4.90;;;12.30;99.90;;;;;;5033371;28;20694;-70
2022/10/08 01:07:45;;;;;;;9.30;6.07;;;12.30;99.90;;;;;;5019628;28;20274;-70
2022/10/08 01:10:25;;;;;;;8.07;4.53;;;12.20;99.90;;;;;;5034637;28;20777;-72
2022/10/08 01:13:15;;;;;;;11.50;5.20;;;12.20;99.90;;;;;;5032086;28;20712;-70
2022/10/08 01:15:48;;;;;;;11.70;5.83;;;12.10;99.90;;;;;;5018422;28;20188;-72
2022/10/08 01:18:27;;;;;;;10.83;5.40;;;12.10;99.90;;;;;;5036876;28;20175;-71
2022/10/08 01:21:03;;;;;;;10.40;5.90;;;12.10;99.90;;;;;;5013623;28;20764;-70
2022/10/08 01:23:47;;;;;;;9.93;5.67;;;11.90;99.90;;;;;;5037561;28;20211;-71
2022/10/08 01:26:41;;;;;;;10.37;5.70;;;12.00;99.90;;;;;;5036193;28;20226;-71
2022/10/08 01:29:15;;;;;;;13.23;5.37;;;11.90;99.90;;;;;;5031845;28;20201;-71
2022/10/08 01:31:46;;;;;;;8.23;5.60;;;11.90;99.90;;;;;;5037624;28;20207;-71
2022/10/08 01:34:36;;;;;;;9.20;5.83;;;11.90;99.90;;;;;;5037263;28;21340;-71
2022/10/08 01:37:04;;;;;;;12.20;5.20;;;11.90;99.90;;;;;;5031522;28;20207;-71
2022/10/08 01:39:34;;;;;;;8.43;5.80;;;11.90;99.90;;;;;;5034420;28;20239;-71
2022/10/08 01:42:02;;;;;;;10.63;5.13;;;11.90;99.90;;;;;;5037235;28;20201;-70
2022/10/08 01:44:38;;;;;;;6.63;5.43;;;11.90;99.90;;;;;;5034515;28;20635;-71
2022/10/08 01:47:07;;;;;;;9.43;5.37;;;11.80;99.90;;;;;;5006806;28;20621;-70
2022/10/08 01:49:40;;;;;;;10.23;5.53;;;11.90;99.90;;;;;;5037937;28;20298;-70
2022/10/08 01:52:29;;;;;;;9.30;5.60;;;11.90;99.90;;;;;;5036279;28;20211;-71
2022/10/08 01:55:00;;;;;;;7.53;5.77;;;12.00;99.90;;;;;;5032535;28;20215;-70
2022/10/08 01:57:27;;;;;;;10.07;5.27;;;12.00;99.90;;;;;;5037679;28;20172;-71
2022/10/08 01:59:58;;;;;;;10.73;5.77;;;12.00;99.90;;;;;;5032688;28;20208;-69
2022/10/08 02:02:25;;;;;;;9.43;6.07;;;12.10;99.90;;;;;;5033499;28;20231;-71
2022/10/08 02:04:53;;;;;;;10.67;5.60;;;12.20;99.90;;;;;;5030751;28;20227;-71
2022/10/08 02:07:20;;;;;;;8.30;5.90;;;12.10;99.90;;;;;;5014821;28;20568;-71
2022/10/08 02:09:51;;;;;;;10.77;6.00;;;12.10;99.90;;;;;;5015898;28;20674;-71
2022/10/08 02:12:19;;;;;;;10.77;6.20;;;12.00;99.90;;;;;;5030482;28;20637;-71
2022/10/08 02:14:50;;;;;;;10.17;5.90;;;12.10;99.90;;;;;;5037178;28;20303;-71
2022/10/08 02:17:39;;;;;;;11.83;6.03;;;12.00;99.90;;;;;;5037131;28;20200;-71
2022/10/08 02:20:40;;;;;;;8.17;5.70;;;11.90;99.90;;;;;;5007250;28;20213;-71
2022/10/08 02:23:16;;;;;;;11.00;5.83;;;12.00;99.90;;;;;;4954921;28;20213;-71
2022/10/08 02:25:50;;;;;;;9.10;5.47;;;12.00;99.90;;;;;;5023126;28;20220;-71
2022/10/08 02:28:22;;;;;;;9.17;5.77;;;12.10;99.90;;;;;;5033803;28;20195;-70
2022/10/08 02:31:10;;;;;;;9.70;6.07;;;12.10;99.90;;;;;;5037490;28;20290;-71
2022/10/08 02:33:43;;;;;;;10.90;5.90;;;12.10;99.90;;;;;;5035320;28;20168;-71
2022/10/08 02:36:12;;;;;;;12.10;6.10;;;12.10;99.90;;;;;;5041553;28;20714;-71
2022/10/08 02:38:51;;;;;;;13.27;5.90;;;12.20;99.90;;;;;;5013835;28;20218;-71
2022/10/08 02:41:20;;;;;;;9.23;5.77;;;12.10;99.90;;;;;;5032495;23;20381;-72
2022/10/08 02:43:48;;;;;;;9.97;5.73;;;12.10;99.90;;;;;;5037640;28;20686;-72
2022/10/08 02:46:21;;;;;;;10.63;5.80;;;12.00;99.90;;;;;;5053428;28;20212;-72
2022/10/08 02:49:05;;;;;;;8.77;5.70;;;12.00;99.90;;;;;;5045884;28;20190;-69
2022/10/08 02:51:35;;;;;;;7.33;5.23;;;12.00;99.90;;;;;;5052312;28;20577;-72
2022/10/08 02:54:03;;;;;;;9.80;5.43;;;12.00;99.90;;;;;;5045304;28;20208;-72
2022/10/08 02:56:45;;;;;;;10.10;5.80;;;12.00;99.90;;;;;;5045945;28;20769;-72
2022/10/08 02:59:12;;;;;;;10.50;5.43;;;12.00;99.90;;;;;;5030746;28;20228;-69
2022/10/08 03:01:51;;;;;;;7.63;5.30;;;11.90;99.90;;;;;;5029412;28;20216;-72
2022/10/08 03:04:44;;;;;;;9.10;5.73;;;11.90;99.90;;;;;;5045900;28;20205;-72
2022/10/08 03:07:11;;;;;;;9.17;5.70;;;11.80;99.90;;;;;;5053288;28;20208;-72
2022/10/08 03:09:43;;;;;;;10.77;6.30;;;11.80;99.90;;;;;;5031573;28;20768;-73
2022/10/08 03:12:09;;;;;;;11.93;5.70;;;11.90;99.90;;;;;;5049378;28;20197;-73
2022/10/08 03:14:38;;;;;;;7.97;5.93;;;11.90;99.90;;;;;;5048670;28;20748;-73
2022/10/08 03:17:06;;;;;;;8.97;5.90;;;11.90;99.90;;;;;;5051300;28;20311;-72
2022/10/08 03:19:33;;;;;;;13.53;6.17;;;12.00;99.90;;;;;;5045370;28;20204;-72
2022/10/08 03:22:00;;;;;;;6.73;5.27;;;11.90;99.90;;;;;;5024410;28;20278;-72
2022/10/08 03:24:25;;;;;;;12.03;6.10;;;12.00;99.90;;;;;;5051366;28;20184;-72
2022/10/08 03:26:52;;;;;;;10.10;5.87;;;12.00;99.90;;;;;;5046247;28;20222;-72
2022/10/08 03:29:18;;;;;;;9.53;5.60;;;11.90;99.90;;;;;;5025925;28;20203;-72
2022/10/08 03:31:45;;;;;;;10.53;5.50;;;12.00;99.90;;;;;;5048522;28;20222;-72
2022/10/08 03:34:11;;;;;;;13.10;6.50;;;12.00;99.90;;;;;;5035939;28;20215;-72
2022/10/08 03:36:36;;;;;;;13.80;5.47;;;12.00;99.90;;;;;;5046277;28;20176;-72
2022/10/08 03:39:02;;;;;;;7.93;6.13;;;12.00;99.90;;;;;;5047982;28;20187;-72
2022/10/08 03:41:30;;;;;;;9.03;5.60;;;11.90;99.90;;;;;;5050614;28;20249;-72
2022/10/08 03:43:56;;;;;;;8.87;5.50;;;11.90;99.90;;;;;;5019755;28;20212;-73
2022/10/08 03:46:22;;;;;;;10.00;5.67;;;11.90;99.90;;;;;;5034456;28;20265;-72
2022/10/08 03:48:48;;;;;;;10.43;5.93;;;11.80;99.90;;;;;;5044243;28;20195;-72
2022/10/08 03:51:15;;;;;;;9.23;5.37;;;11.90;99.90;;;;;;5052068;28;20278;-72
2022/10/08 03:53:42;;;;;;;8.87;5.60;;;11.90;99.90;;;;;;5046652;28;20238;-72
2022/10/08 03:56:15;;;;;;;8.20;5.87;;;11.90;99.90;;;;;;5025432;28;20213;-72
2022/10/08 03:58:41;;;;;;;8.77;5.17;;;12.00;99.90;;;;;;5050500;28;20632;-72
2022/10/08 04:01:13;;;;;;;9.30;5.10;;;11.90;99.90;;;;;;5019997;28;20251;-72
2022/10/08 04:03:38;;;;;;;9.23;5.30;;;11.90;99.90;;;;;;5043643;28;20187;-73
2022/10/08 04:06:04;;;;;;;13.67;6.10;;;11.90;99.90;;;;;;5027700;28;20200;-71
2022/10/08 04:08:30;;;;;;;8.53;5.50;;;12.00;99.90;;;;;;5048987;28;20235;-72
2022/10/08 04:10:56;;;;;;;10.13;5.53;;;12.10;99.90;;;;;;5033723;28;20286;-72
2022/10/08 04:13:22;;;;;;;11.13;5.40;;;12.00;99.90;;;;;;5044363;28;20204;-72
2022/10/08 04:15:51;;;;;;;8.80;5.70;;;12.00;99.90;;;;;;5031581;28;20558;-72
2022/10/08 04:18:17;;;;;;;12.17;5.80;;;12.00;99.90;;;;;;5045181;28;20192;-72
2022/10/08 04:20:43;;;;;;;9.50;4.87;;;12.00;99.90;;;;;;5043531;28;20243;-72
2022/10/08 04:23:09;;;;;;;7.33;5.00;;;11.90;99.90;;;;;;5045539;28;20284;-72
2022/10/08 04:25:35;;;;;;;8.80;5.07;;;11.90;99.90;;;;;;5054065;28;20211;-72
2022/10/08 04:28:02;;;;;;;9.87;5.13;;;11.90;99.90;;;;;;5027769;28;20360;-72
2022/10/08 04:30:29;;;;;;;8.63;5.47;;;11.90;99.90;;;;;;5054523;28;20203;-72
2022/10/08 04:32:55;;;;;;;7.27;5.37;;;12.00;99.90;;;;;;5048662;28;20751;-72
2022/10/08 04:35:20;;;;;;;8.40;4.97;;;12.00;99.90;;;;;;5059456;28;20261;-72
2022/10/08 04:37:46;;;;;;;7.73;5.13;;;12.00;99.90;;;;;;5042173;28;20242;-72
2022/10/08 04:40:12;;;;;;;8.70;5.00;;;11.90;99.90;;;;;;5032037;28;20269;-72
2022/10/08 04:42:37;;;;;;;9.37;5.37;;;11.90;99.90;;;;;;5048529;28;20302;-72
2022/10/08 04:45:03;;;;;;;8.97;5.27;;;11.90;99.90;;;;;;5044197;28;20212;-73
2022/10/08 04:47:28;;;;;;;7.33;5.00;;;11.90;99.90;;;;;;5043123;28;20200;-71
2022/10/08 04:49:54;;;;;;;9.10;5.00;;;11.90;99.90;;;;;;5029005;28;20203;-73
2022/10/08 04:52:20;;;;;;;11.07;5.30;;;11.90;99.90;;;;;;5033277;28;20257;-73
2022/10/08 04:54:45;;;;;;;6.53;5.07;;;11.80;99.90;;;;;;5041751;28;20263;-72
2022/10/08 04:57:11;;;;;;;11.53;6.47;;;11.80;99.90;;;;;;5046448;28;20526;-72
2022/10/08 04:59:37;;;;;;;10.63;5.60;;;11.80;99.90;;;;;;5032950;28;20640;-72
2022/10/08 05:02:02;;;;;;;10.27;5.17;;;11.80;99.90;;;;;;5046614;28;20661;-73
2022/10/08 05:04:28;;;;;;;7.47;5.17;;;11.70;99.90;;;;;;5043683;28;20579;-72
2022/10/08 05:06:53;;;;;;;8.63;4.53;;;11.70;99.90;;;;;;5035052;28;20290;-72
2022/10/08 05:09:19;;;;;;;6.07;4.40;;;11.70;99.90;;;;;;5054012;28;20205;-72
2022/10/08 05:11:45;;;;;;;7.50;4.83;;;11.70;99.90;;;;;;5044841;28;20601;-72
2022/10/08 05:14:10;;;;;;;9.77;5.10;;;11.70;99.90;;;;;;5052284;28;20219;-72
2022/10/08 05:16:36;;;;;;;6.90;4.80;;;11.70;99.90;;;;;;5039413;28;20210;-72
2022/10/08 05:19:02;;;;;;;8.17;4.80;;;11.70;99.90;;;;;;5048346;28;20701;-73
2022/10/08 05:21:29;;;;;;;9.57;4.80;;;11.70;99.90;;;;;;5043949;28;20199;-72
2022/10/08 05:23:56;;;;;;;9.53;5.07;;;11.70;99.90;;;;;;5053268;28;20620;-72
2022/10/08 05:26:24;;;;;;;6.83;5.03;;;11.80;99.90;;;;;;5039090;28;20221;-72
2022/10/08 05:28:54;;;;;;;10.57;5.03;;;11.80;99.90;;;;;;5044185;28;20699;-72
2022/10/08 05:31:21;;;;;;;13.80;4.97;;;11.90;99.90;;;;;;5046222;28;20256;-71
2022/10/08 05:33:46;;;;;;;11.63;4.80;;;11.90;99.90;;;;;;5034829;28;20878;-70
2022/10/08 05:36:18;;;;;;;11.00;5.23;;;12.00;99.90;;;;;;5048965;28;20216;-72
2022/10/08 05:38:43;;;;;;;7.30;5.07;;;12.00;99.90;;;;;;5041820;28;20303;-72
2022/10/08 05:41:12;;;;;;;8.17;5.33;;;12.00;99.90;;;;;;5056377;28;20240;-72
2022/10/08 05:43:38;;;;;;;9.17;5.03;;;12.00;99.90;;;;;;5048297;28;20238;-72
2022/10/08 05:46:04;;;;;;;9.50;5.97;;;12.10;99.90;;;;;;5027178;28;20273;-70
2022/10/08 05:48:29;;;;;;;9.23;5.13;;;12.10;99.90;;;;;;5046453;28;20860;-71
2022/10/08 05:50:55;;;;;;;12.53;5.27;;;12.10;99.90;;;;;;5050892;28;20287;-71
2022/10/08 05:53:20;;;;;;;9.23;4.70;;;12.10;99.90;;;;;;5050196;28;20302;-71
2022/10/08 05:55:46;;;;;;;7.77;5.07;;;12.10;99.90;;;;;;5041815;28;20293;-71
2022/10/08 05:58:11;;;;;;;8.43;5.27;;;12.20;99.90;;;;;;5039843;28;20203;-71
2022/10/08 06:00:37;;;;;;;7.77;4.17;;;12.20;99.90;;;;;;5050778;28;20251;-71
2022/10/08 06:03:02;;;;;;;8.40;4.93;;;12.20;99.90;;;;;;5046604;28;20200;-70
2022/10/08 06:05:28;;;;;;;10.70;4.30;;;12.20;99.90;;;;;;5045794;28;20309;-71
2022/10/08 06:07:56;;;;;;;9.37;4.93;;;12.30;99.90;;;;;;5052458;28;20210;-71
2022/10/08 06:10:25;;;;;;;6.10;4.40;;;12.30;99.90;;;;;;5049779;28;20243;-71
2022/10/08 06:12:50;;;;;;;12.40;4.80;;;12.30;99.90;;;;;;5040819;28;20232;-71
2022/10/08 06:15:16;;;;;;;7.40;4.00;;;12.30;99.90;;;;;;5058598;28;20236;-72
2022/10/08 06:17:41;;;;;;;9.67;4.50;;;12.40;99.90;;;;;;5050448;28;20591;-71
2022/10/08 06:20:07;;;;;;;7.97;4.20;;;12.40;99.90;;;;;;5045428;28;20376;-72
2022/10/08 06:22:33;;;;;;;6.20;4.30;;;12.50;99.90;;;;;;5046010;28;20210;-72
2022/10/08 06:24:58;;;;;;;7.47;4.37;;;12.60;99.90;;;;;;5053140;28;20219;-72
2022/10/08 06:27:24;;;;;;;9.50;5.30;;;12.70;99.90;;;;;;5050648;28;20180;-72
2022/10/08 06:29:49;;;;;;;11.70;5.43;;;12.80;99.90;;;;;;5041069;28;20211;-71
2022/10/08 06:32:15;;;;;;;8.33;4.40;;;12.80;99.90;;;;;;5051416;28;20260;-72
2022/10/08 06:34:40;;;;;;;8.77;3.70;;;12.90;99.90;;;;;;5033067;28;20258;-71
2022/10/08 06:37:06;;;;;;;8.37;4.33;;;12.90;99.90;;;;;;5028255;28;20624;-71
2022/10/08 06:39:32;;;;;;;10.40;4.87;;;13.00;99.90;;;;;;5046668;28;20167;-71
2022/10/08 06:41:57;;;;;;;8.77;4.17;;;13.30;99.90;;;;;;5053268;28;20624;-73
2022/10/08 06:44:23;;;;;;;8.97;4.47;;;13.50;99.90;;;;;;5036729;28;20218;-72
2022/10/08 06:46:48;;;;;;;7.17;4.60;;;13.40;99.90;;;;;;5041463;28;20220;-72
2022/10/08 06:49:14;;;;;;;7.70;4.63;;;14.10;99.90;;;;;;5048756;28;20211;-72
2022/10/08 06:51:40;;;;;;;12.52;4.78;;;14.80;99.90;;;;;;5033992;28;20264;-72
2022/10/08 06:54:06;;;;;;;10.88;4.35;;;15.70;99.90;;;;;;5045229;28;20180;-72
2022/10/08 06:56:32;;;;;;;8.13;4.65;;;16.70;99.90;;;;;;5028636;28;20209;-72
2022/10/08 06:58:58;;;;;;;8.23;4.85;;;17.80;99.90;;;;;;5035662;28;20235;-72
2022/10/08 07:01:25;;;;;;;8.85;4.20;;;18.80;99.90;;;;;;5051255;28;20234;-72
2022/10/08 07:03:56;;;;;;;9.43;4.40;;;20.10;99.90;;;;;;5041796;28;20657;-72
2022/10/08 07:06:23;;;;;;;9.45;4.25;;;20.90;99.90;;;;;;5033969;28;20187;-71
2022/10/08 07:08:53;;;;;;;5.25;3.50;;;20.80;99.90;;;;;;5050064;28;20207;-72
2022/10/08 07:11:19;;;;;;;10.88;4.45;;;19.80;99.90;;;;;;5043628;28;20570;-71
2022/10/08 07:13:45;;;;;;;8.70;4.32;;;19.20;99.90;;;;;;5045270;28;20211;-69
2022/10/08 07:16:19;;;;;;;8.75;4.15;;;19.60;99.90;;;;;;5055340;28;20358;-72
2022/10/08 07:18:46;;;;;;;9.80;3.88;;;19.90;99.90;;;;;;5049162;28;20263;-72
2022/10/08 07:21:14;;;;;;;6.75;4.10;;;20.60;99.90;;;;;;5047671;28;20807;-72
2022/10/08 07:23:40;;;;;;;6.78;3.63;;;21.50;99.90;;;;;;5055257;28;20642;-71
2022/10/08 07:26:26;;;;;;;5.95;3.60;;;22.30;99.90;;;;;;5054964;28;20299;-72
2022/10/08 07:28:54;;;;;;;7.70;4.03;;;22.30;99.90;;;;;;5048002;28;20208;-74
2022/10/08 07:31:22;;;;;;;8.68;3.58;;;22.70;99.90;;;;;;5049233;28;20225;-72
2022/10/08 07:33:48;;;;;;;7.53;3.60;;;23.00;99.90;;;;;;5055358;28;20195;-72
2022/10/08 07:36:16;;;;;;;9.02;3.85;;;23.70;99.90;;;;;;5052609;28;20270;-73
2022/10/08 07:38:42;;;;;;;4.85;3.55;;;23.10;99.90;;;;;;5026183;28;20827;-72
2022/10/08 07:41:09;;;;;;;8.80;4.53;;;22.00;99.90;;;;;;5057919;28;20228;-72
2022/10/08 07:43:35;;;;;;;8.80;3.97;;;20.90;99.90;;;;;;5039211;28;20710;-73
2022/10/08 07:46:03;;;;;;;6.72;3.42;;;20.30;99.90;;;;;;5046883;28;20266;-72
2022/10/08 07:48:29;;;;;;;6.78;3.50;;;21.10;99.90;;;;;;5048479;28;20181;-72
2022/10/08 07:50:55;;;;;;;6.90;3.40;;;21.10;99.90;;;;;;5053366;28;20291;-72
2022/10/08 07:53:20;;;;;;;10.35;3.33;;;21.70;99.90;;;;;;5051475;28;20584;-72
2022/10/08 07:55:46;;;;;;;5.88;3.00;;;22.30;99.90;;;;;;5043750;28;20212;-70
2022/10/08 07:58:12;;;;;;;6.97;3.35;;;22.80;99.90;;;;;;5057153;28;20234;-72
2022/10/08 08:00:39;;;;;;;9.40;3.70;;;23.20;99.90;;;;;;5052813;28;20176;-71
2022/10/08 08:03:04;;;;;;;9.85;3.03;;;23.30;99.90;;;;;;5049396;28;20181;-71
2022/10/08 08:05:34;;;;;;;7.20;3.05;;;23.70;99.90;;;;;;5048338;28;20229;-72
2022/10/08 08:07:59;;;;;;;10.88;3.28;;;24.00;99.90;;;;;;5055346;28;20221;-72
2022/10/08 08:10:25;;;;;;;5.40;2.85;;;23.80;99.90;;;;;;5051556;28;20286;-71
2022/10/08 08:12:50;;;;;;;7.68;3.05;;;23.60;99.90;;;;;;5025354;28;20227;-69
2022/10/08 08:15:16;;;;;;;10.45;3.15;;;23.00;99.90;;;;;;5054120;28;20178;-72
2022/10/08 08:17:42;;;;;;;5.35;2.53;;;23.00;99.90;;;;;;5053017;28;20356;-72
2022/10/08 08:20:08;;;;;;;8.80;2.63;;;23.00;99.90;;;;;;5049838;28;20264;-72
2022/10/08 08:22:33;;;;;;;7.60;2.90;;;22.70;99.90;;;;;;5082051;28;20213;-72
2022/10/08 08:24:59;;;;;;;7.68;2.65;;;22.50;99.90;;;;;;5055390;28;20741;-73
2022/10/08 08:27:24;;;;;;;7.30;3.20;;;22.10;99.90;;;;;;5041403;28;20646;-72
2022/10/08 08:29:50;;;;;;;8.38;2.92;;;22.00;99.90;;;;;;5025915;28;20299;-72
2022/10/08 08:32:15;;;;;;;5.68;2.38;;;21.80;99.90;;;;;;5054237;28;20297;-71
2022/10/08 08:34:41;;;;;;;8.75;3.35;;;21.40;99.90;;;;;;5052995;28;20219;-71
2022/10/08 08:37:06;;;;;;;8.98;3.50;;;21.60;99.90;;;;;;5047570;28;20283;-72
2022/10/08 08:39:32;;;;;;;6.22;2.65;;;21.20;99.90;;;;;;5046939;28;20178;-72
2022/10/08 08:42:17;;;;;;;9.68;3.13;;;20.90;99.90;;;;;;5080115;22;20214;-70
2022/10/08 08:44:46;;;;;;;10.55;3.08;;;20.80;99.90;;;;;;5037192;28;20290;-71
2022/10/08 08:47:39;;;;;;;11.63;3.30;;;20.80;99.90;;;;;;5048983;28;20710;-71
2022/10/08 08:50:18;;;;;;;10.80;4.30;;;20.30;99.90;;;;;;5037058;28;20247;-71
2022/10/08 08:52:43;;;;;;;9.68;3.30;;;19.80;99.90;;;;;;5046216;28;20219;-71
2022/10/08 08:55:18;;;;;;;8.68;3.42;;;19.40;99.90;;;;;;5043102;28;20760;-71
2022/10/08 08:58:06;;;;;;;9.45;3.22;;;19.60;99.90;;;;;;5046188;28;20194;-71
2022/10/08 09:00:35;;;;;;;7.47;3.40;;;19.30;99.90;;;;;;5046532;28;20600;-73
2022/10/08 09:03:22;;;;;;;11.38;4.13;;;19.10;99.90;;;;;;5041332;28;20200;-71
2022/10/08 09:05:52;;;;;;;9.02;3.22;;;19.30;99.90;;;;;;5042509;28;20218;-71
2022/10/08 09:08:22;;;;;;;19.08;3.67;;;19.30;99.90;;;;;;5023688;28;20207;-70
2022/10/08 09:10:57;;;;;;;10.50;3.65;;;19.10;99.90;;;;;;5043711;28;20287;-70
2022/10/08 09:13:35;;;;;;;8.93;3.88;;;19.10;99.90;;;;;;5025076;28;20213;-71
2022/10/08 09:16:01;;;;;;;11.32;3.65;;;18.70;99.90;;;;;;5047484;28;20231;-72
2022/10/08 09:18:27;;;;;;;13.77;4.32;;;18.70;99.90;;;;;;5046649;28;20277;-71
2022/10/08 09:20:52;;;;;;;10.07;3.47;;;18.60;99.90;;;;;;5040209;28;20694;-71
2022/10/08 09:23:21;;;;;;;12.88;3.65;;;19.00;99.90;;;;;;5045530;28;20211;-71
2022/10/08 09:26:08;;;;;;;10.73;3.80;;;18.90;99.90;;;;;;5046688;28;20230;-71
2022/10/08 09:28:40;;;;;;;10.40;4.35;;;18.70;99.90;;;;;;5040079;28;20204;-71
2022/10/08 09:31:34;;;;;;;16.75;4.63;;;18.30;99.90;;;;;;5040978;28;20721;-71
2022/10/08 09:34:09;;;;;;;10.73;4.10;;;17.90;99.90;;;;;;5026587;28;20580;-71
2022/10/08 09:36:39;;;;;;;12.18;4.15;;;17.40;99.90;;;;;;5039822;28;20207;-71
2022/10/08 09:39:25;;;;;;;11.25;4.57;;;17.40;99.90;;;;;;5041909;28;20177;-71
2022/10/08 09:42:03;;;;;;;13.55;4.22;;;17.20;99.90;;;;;;5041122;28;20226;-71
2022/10/08 09:44:48;;;;;;;14.32;4.28;;;17.40;99.90;;;;;;5044512;28;20207;-71
2022/10/08 09:47:24;;;;;;;9.98;4.05;;;17.60;99.90;;;;;;5025412;28;20261;-71
2022/10/08 09:50:20;;;;;;;14.00;4.90;;;17.80;99.90;;;;;;5042596;28;20199;-71
2022/10/08 09:52:48;;;;;;;13.80;4.35;;;17.90;99.90;;;;;;5041114;28;20222;-71
2022/10/08 09:55:25;;;;;;;14.90;4.50;;;17.90;99.90;;;;;;5043353;28;20223;-71
2022/10/08 09:57:55;;;;;;;10.35;3.70;;;17.80;99.90;;;;;;5042174;28;20184;-72
2022/10/08 10:00:26;;;;;;;9.70;3.38;;;17.60;99.90;;;;;;5024683;28;20176;-71
2022/10/08 10:02:53;;;;;;;8.07;3.72;;;17.30;99.90;;;;;;5042006;28;20877;-71
2022/10/08 10:05:23;;;;;;;8.65;3.15;;;17.50;99.90;;;;;;5023741;28;20306;-70
2022/10/08 10:07:49;;;;;;;8.43;3.58;;;17.70;99.90;;;;;;5041617;28;20690;-70
2022/10/08 10:10:15;;;;;;;9.20;3.55;;;17.70;99.90;;;;;;5044722;28;20210;-71
2022/10/08 10:12:42;;;;;;;7.93;3.97;;;17.60;99.90;;;;;;5041473;28;20282;-71
2022/10/08 10:15:08;;;;;;;7.75;3.45;;;17.50;99.90;;;;;;5026691;28;20255;-71
2022/10/08 10:17:46;;;;;;;8.13;3.83;;;17.60;99.90;;;;;;5047016;28;20762;-70
2022/10/08 10:20:33;;;;;;;13.20;4.40;;;17.60;99.90;;;;;;5042232;28;20215;-71
2022/10/08 10:23:19;;;;;;;9.77;4.22;;;17.40;99.90;;;;;;5011610;28;20211;-71
2022/10/08 10:25:48;;;;;;;11.02;4.20;;;17.20;99.90;;;;;;5040972;28;20216;-71
2022/10/08 10:28:36;;;;;;;10.55;3.63;;;17.20;99.90;;;;;;5044013;28;20246;-71
2022/10/08 10:31:06;;;;;;;11.05;3.50;;;17.00;99.90;;;;;;5037691;28;20204;-70
2022/10/08 10:33:38;;;;;;;15.40;3.90;;;16.70;99.90;;;;;;5047998;28;20565;-71
2022/10/08 10:36:09;;;;;;;13.65;4.03;;;16.80;99.90;;;;;;5044195;28;20185;-71
2022/10/08 10:38:40;;;;;;;13.43;4.10;;;16.70;99.90;;;;;;5024009;28;20203;-69
2022/10/08 10:41:10;;;;;;;6.30;3.45;;;16.70;99.90;;;;;;5046555;28;20783;-72
2022/10/08 10:43:49;;;;;;;8.82;3.65;;;16.80;99.90;;;;;;5045190;28;20227;-71
2022/10/08 10:46:23;;;;;;;8.25;3.33;;;16.90;99.90;;;;;;5025394;28;20211;-72
2022/10/08 10:48:49;;;;;;;11.93;4.10;;;17.00;99.90;;;;;;5042073;28;20187;-71
2022/10/08 10:51:28;;;;;;;8.48;3.63;;;16.90;99.90;;;;;;5047675;28;20172;-71
2022/10/08 10:54:26;;;;;;;7.78;3.60;;;16.80;99.90;;;;;;5026476;28;20742;-71
2022/10/08 10:57:08;;;;;;;8.10;3.25;;;16.70;99.90;;;;;;5034692;28;20678;-71
2022/10/08 10:59:40;;;;;;;9.25;3.10;;;16.60;99.90;;;;;;5031448;28;20207;-72
2022/10/08 11:02:15;;;;;;;7.80;3.63;;;16.60;99.90;;;;;;5030655;28;20234;-71
2022/10/08 11:04:40;;;;;;;7.40;3.40;;;16.60;99.90;;;;;;5045087;28;20231;-70
2022/10/08 11:07:28;;;;;;;7.60;3.47;;;16.70;99.90;;;;;;5052158;28;20251;-71
2022/10/08 11:10:20;;;;;;;12.13;3.72;;;16.70;99.90;;;;;;5028687;28;20781;-70
2022/10/08 11:13:23;;;;;;;7.38;3.70;;;16.70;99.90;;;;;;5044292;28;20257;-71
2022/10/08 11:16:05;;;;;;;7.00;3.67;;;16.60;99.90;;;;;;5040763;28;20215;-70
2022/10/08 11:18:50;;;;;;;10.77;3.53;;;16.50;99.90;;;;;;5048438;28;20171;-71
2022/10/08 11:21:29;;;;;;;9.55;3.40;;;16.40;99.90;;;;;;5046241;28;20543;-70
2022/10/08 11:24:06;;;;;;;12.85;4.40;;;16.40;99.90;;;;;;5045345;28;20211;-70
2022/10/08 11:27:10;;;;;;;11.50;4.28;;;16.00;99.90;;;;;;5049550;28;20218;-71
2022/10/08 11:29:47;;;;;;;9.05;4.07;;;15.70;99.90;;;;;;5012024;28;20205;-71
2022/10/08 11:32:15;;;;;;;12.23;4.85;;;15.50;99.90;;;;;;5048047;28;20720;-70
2022/10/08 11:34:55;;;;;;;9.65;4.22;;;15.50;99.90;;;;;;5025308;28;20214;-71
2022/10/08 11:37:27;;;;;;;13.10;4.75;;;15.50;99.90;;;;;;5044667;28;20283;-71
2022/10/08 11:40:17;;;;;;;13.32;4.60;;;15.40;99.90;;;;;;5023585;28;20210;-68
2022/10/08 11:43:03;;;;;;;10.80;4.65;;;15.40;99.90;;;;;;5042942;28;20214;-70
2022/10/08 11:45:32;;;;;;;10.98;4.50;;;15.40;99.90;;;;;;5031622;28;20199;-71
2022/10/08 11:48:00;;;;;;;8.60;4.88;;;15.60;99.90;;;;;;5042260;28;20697;-71
2022/10/08 11:50:31;;;;;;;10.55;4.28;;;15.60;99.90;;;;;;5051633;28;20269;-71
2022/10/08 11:53:09;;;;;;;12.48;4.65;;;15.60;99.90;;;;;;5047905;28;20428;-72
2022/10/08 11:55:35;;;;;;;7.72;4.05;;;15.80;99.90;;;;;;5041935;28;20200;-72
2022/10/08 11:58:06;;;;;;;9.18;4.65;;;15.80;99.90;;;;;;5045717;28;20210;-70
2022/10/08 12:00:42;;;;;;;12.13;4.63;;;16.00;99.90;;;;;;5049428;28;20259;-70
2022/10/08 12:03:30;;;;;;;13.45;5.22;;;16.00;99.90;;;;;;5045311;28;20196;-70
2022/10/08 12:06:12;;;;;;;9.98;5.10;;;16.20;99.90;;;;;;5041598;28;20216;-70
2022/10/08 12:08:50;;;;;;;11.98;4.75;;;16.40;99.90;;;;;;5049320;28;20261;-70
2022/10/08 12:11:30;;;;;;;14.18;4.82;;;16.70;99.90;;;;;;5046412;28;20191;-69
2022/10/08 12:14:12;;;;;;;11.75;5.20;;;16.80;99.90;;;;;;5020763;28;20200;-70
2022/10/08 12:16:47;;;;;;;9.75;5.65;;;16.90;99.90;;;;;;5050126;28;20234;-71
2022/10/08 12:19:31;;;;;;;8.55;4.93;;;16.90;99.90;;;;;;5045514;28;20207;-70
2022/10/08 12:22:17;;;;;;;8.43;4.93;;;17.00;99.90;;;;;;5038692;28;20215;-70
2022/10/08 12:24:43;;;;;;;9.63;3.92;;;17.10;99.90;;;;;;5018375;28;20638;-72
2022/10/08 12:27:30;;;;;;;10.23;4.50;;;17.00;99.90;;;;;;5046974;28;20192;-70
2022/10/08 12:30:04;;;;;;;7.82;4.63;;;17.00;99.90;;;;;;5041650;28;20231;-71
2022/10/08 12:32:42;;;;;;;9.48;4.60;;;17.00;99.90;;;;;;5047344;28;20203;-71
2022/10/08 12:35:26;;;;;;;8.85;4.32;;;16.90;99.90;;;;;;5046729;28;20204;-70
2022/10/08 12:38:12;;;;;;;11.07;4.47;;;16.80;99.90;;;;;;5042516;28;20220;-69
2022/10/08 12:40:43;;;;;;;10.00;4.28;;;16.90;99.90;;;;;;5048117;28;20211;-71
2022/10/08 12:43:22;;;;;;;10.85;4.10;;;16.80;99.90;;;;;;5046964;28;20220;-71
2022/10/08 12:46:02;;;;;;;10.90;5.00;;;16.40;99.90;;;;;;5044217;28;20565;-70
2022/10/08 12:48:50;;;;;;;11.05;4.40;;;16.30;99.90;;;;;;5042008;28;20183;-72
2022/10/08 12:51:34;;;;;;;7.82;3.63;;;16.40;99.90;;;;;;5049306;28;20230;-70
2022/10/08 12:54:00;;;;;;;7.97;4.00;;;16.60;99.90;;;;;;5044012;28;20301;-73
2022/10/08 12:56:28;;;;;;;12.43;4.20;;;16.80;99.90;;;;;;5043610;28;20207;-72
2022/10/08 12:58:55;;;;;;;10.40;4.75;;;17.00;99.90;;;;;;5028607;28;20313;-71
2022/10/08 13:01:23;;;;;;;9.93;4.10;;;17.00;99.90;;;;;;5047322;28;20231;-70
2022/10/08 13:04:31;;;;;;;8.63;4.97;;;17.10;99.90;;;;;;5042372;28;20234;-70